Time;durP1;ratioP1;P1;durP2;ratioP2;P2;SDS_P1;SDS_P2;PMS_P1;PMS_P2;Temp;Humidity;BMP_temperature;BMP_pressure;BME280_temperature;BME280_humidity;BME280_pressure;Samples;Min_cycle;Max_cycle;Signal;HPM_P1;HPM_P2
2021/07/01 00:01:15;;;;;;;9.60;8.03;;;15.80;94.50;;;;;;5093818;28;20439;-65
2021/07/01 00:03:42;;;;;;;8.80;7.97;;;15.80;94.60;;;;;;5093584;28;20444;-65
2021/07/01 00:06:10;;;;;;;8.20;7.23;;;15.80;94.50;;;;;;5093252;28;20830;-65
2021/07/01 00:08:37;;;;;;;9.50;7.97;;;15.80;94.70;;;;;;5093765;28;20517;-65
2021/07/01 00:11:04;;;;;;;10.00;7.80;;;15.80;94.80;;;;;;5094268;28;20454;-65
2021/07/01 00:13:31;;;;;;;8.13;7.33;;;15.80;94.90;;;;;;5093749;28;20444;-65
2021/07/01 00:15:58;;;;;;;9.83;7.70;;;15.80;94.90;;;;;;5093380;28;20444;-66
2021/07/01 00:18:25;;;;;;;8.80;7.40;;;15.80;94.90;;;;;;5092990;28;20447;-65
2021/07/01 00:20:51;;;;;;;8.17;7.47;;;15.90;95.00;;;;;;5093433;28;20447;-65
2021/07/01 00:23:19;;;;;;;7.50;6.57;;;15.90;94.60;;;;;;5093027;28;20835;-65
2021/07/01 00:25:46;;;;;;;8.90;7.53;;;15.90;94.70;;;;;;5093261;28;20447;-65
2021/07/01 00:28:13;;;;;;;8.03;7.33;;;15.90;94.70;;;;;;5092879;28;20559;-65
2021/07/01 00:30:40;;;;;;;8.67;7.77;;;15.80;94.70;;;;;;5093471;28;20448;-65
2021/07/01 00:33:07;;;;;;;8.33;7.40;;;15.80;94.80;;;;;;5093169;28;20456;-65
2021/07/01 00:35:34;;;;;;;9.37;8.17;;;15.70;95.10;;;;;;5093215;28;20444;-65
2021/07/01 00:38:01;;;;;;;8.05;7.18;;;15.70;95.10;;;;;;5093169;28;20411;-65
2021/07/01 00:40:30;;;;;;;9.23;7.77;;;15.70;95.20;;;;;;5093383;28;20210;-65
2021/07/01 00:42:56;;;;;;;12.03;8.43;;;15.70;95.20;;;;;;5093397;28;20439;-65
2021/07/01 00:45:23;;;;;;;9.30;7.97;;;15.70;95.10;;;;;;5093147;28;20960;-65
2021/07/01 00:47:50;;;;;;;7.90;6.93;;;15.70;95.20;;;;;;5093042;28;20487;-65
2021/07/01 00:50:17;;;;;;;9.47;7.60;;;15.60;95.10;;;;;;5093119;28;20443;-65
2021/07/01 00:52:44;;;;;;;9.00;7.60;;;15.60;95.10;;;;;;5093264;28;20447;-65
2021/07/01 00:55:12;;;;;;;7.90;7.10;;;15.60;95.10;;;;;;5092792;28;20960;-65
2021/07/01 00:57:40;;;;;;;11.60;7.80;;;15.60;95.10;;;;;;5092997;28;20471;-65
2021/07/01 01:00:19;;;;;;;11.87;7.90;;;15.60;95.30;;;;;;5092841;28;20440;-65
2021/07/01 01:02:46;;;;;;;10.20;7.43;;;15.60;95.20;;;;;;5093929;28;20471;-65
2021/07/01 01:05:13;;;;;;;8.47;7.67;;;15.60;95.20;;;;;;5094993;28;20535;-65
2021/07/01 01:07:41;;;;;;;13.50;7.67;;;15.70;95.20;;;;;;5096399;28;20487;-65
2021/07/01 01:10:09;;;;;;;9.77;8.50;;;15.70;94.90;;;;;;5096789;28;20439;-65
2021/07/01 01:12:36;;;;;;;13.63;9.10;;;15.70;95.00;;;;;;5096479;28;20455;-65
2021/07/01 01:15:05;;;;;;;12.67;11.20;;;15.70;94.90;;;;;;5096562;28;20461;-65
2021/07/01 01:17:32;;;;;;;11.47;10.20;;;15.70;94.80;;;;;;5096394;28;20460;-65
2021/07/01 01:19:59;;;;;;;13.93;11.47;;;15.60;94.90;;;;;;5096316;28;20451;-65
2021/07/01 01:22:27;;;;;;;13.27;11.70;;;15.60;95.20;;;;;;5096288;28;20461;-65
2021/07/01 01:24:54;;;;;;;16.77;12.03;;;15.60;95.00;;;;;;5095937;28;20439;-65
2021/07/01 01:27:22;;;;;;;12.60;11.40;;;15.60;95.00;;;;;;5096008;28;20482;-65
2021/07/01 01:29:48;;;;;;;19.60;12.53;;;15.60;95.20;;;;;;5096228;28;20432;-65
2021/07/01 01:32:15;;;;;;;15.63;12.10;;;15.60;95.10;;;;;;5096127;28;20459;-65
2021/07/01 01:34:42;;;;;;;22.23;12.40;;;15.60;95.10;;;;;;5096055;28;20784;-65
2021/07/01 01:37:09;;;;;;;13.57;12.17;;;15.70;95.20;;;;;;5095899;28;20485;-65
2021/07/01 01:39:37;;;;;;;14.03;12.53;;;15.70;95.10;;;;;;5096050;28;20455;-65
2021/07/01 01:42:04;;;;;;;19.17;14.70;;;15.70;95.00;;;;;;5096008;28;20450;-65
2021/07/01 01:44:31;;;;;;;15.10;13.50;;;15.70;95.30;;;;;;5096133;28;20439;-65
2021/07/01 01:46:58;;;;;;;16.30;14.63;;;15.70;94.80;;;;;;5095883;28;20468;-65
2021/07/01 01:49:24;;;;;;;20.63;15.37;;;15.70;95.10;;;;;;5095874;28;20482;-65
2021/07/01 01:51:51;;;;;;;16.70;14.13;;;15.70;95.10;;;;;;5095717;28;20451;-65
2021/07/01 01:54:18;;;;;;;20.27;15.90;;;15.60;95.10;;;;;;5095675;28;20463;-65
2021/07/01 01:56:48;;;;;;;17.40;15.43;;;15.60;95.10;;;;;;5095588;28;20472;-65
2021/07/01 01:59:15;;;;;;;17.50;14.23;;;15.60;95.10;;;;;;5095280;28;20924;-65
2021/07/01 02:01:42;;;;;;;18.90;15.60;;;15.60;95.10;;;;;;5095533;28;20443;-65
2021/07/01 02:04:09;;;;;;;18.13;15.83;;;15.60;95.10;;;;;;5095486;28;20443;-66
2021/07/01 02:06:37;;;;;;;15.80;14.07;;;15.60;95.10;;;;;;5095245;28;20479;-66
2021/07/01 02:09:04;;;;;;;18.77;15.73;;;15.60;95.30;;;;;;5095320;28;20483;-65
2021/07/01 02:11:31;;;;;;;18.70;13.40;;;15.50;95.20;;;;;;5095305;28;20440;-65
2021/07/01 02:13:59;;;;;;;16.20;14.50;;;15.50;95.30;;;;;;5095224;28;20448;-65
2021/07/01 02:16:26;;;;;;;17.27;14.53;;;15.50;95.60;;;;;;5094565;28;20474;-65
2021/07/01 02:18:53;;;;;;;17.43;14.67;;;15.50;95.50;;;;;;5095237;28;20443;-65
2021/07/01 02:21:20;;;;;;;15.60;13.90;;;15.50;95.60;;;;;;5095197;28;20436;-65
2021/07/01 02:23:47;;;;;;;17.30;14.17;;;15.50;95.60;;;;;;5094787;28;20964;-65
2021/07/01 02:26:15;;;;;;;15.80;14.10;;;15.50;95.60;;;;;;5094634;28;20459;-65
2021/07/01 02:28:42;;;;;;;20.10;13.80;;;15.50;95.90;;;;;;5094926;28;20476;-65
2021/07/01 02:31:10;;;;;;;16.63;14.87;;;15.50;95.70;;;;;;5094921;28;20439;-65
2021/07/01 02:33:38;;;;;;;20.27;14.20;;;15.50;95.90;;;;;;5094880;28;20444;-65
2021/07/01 02:36:06;;;;;;;17.90;16.00;;;15.50;95.80;;;;;;5094457;28;20905;-66
2021/07/01 02:38:33;;;;;;;17.77;13.97;;;15.40;95.90;;;;;;5095213;28;20435;-65
2021/07/01 02:40:59;;;;;;;16.17;14.30;;;15.40;96.10;;;;;;5095130;28;20467;-65
2021/07/01 02:43:26;;;;;;;17.73;15.87;;;15.40;96.30;;;;;;5095526;28;20444;-65
2021/07/01 02:45:53;;;;;;;17.67;15.90;;;15.30;96.30;;;;;;5094571;28;20441;-66
2021/07/01 02:48:21;;;;;;;15.63;14.03;;;15.30;96.40;;;;;;5094253;28;20996;-65
2021/07/01 02:50:48;;;;;;;16.63;14.93;;;15.30;96.50;;;;;;5095462;28;20778;-65
2021/07/01 02:53:15;;;;;;;16.50;14.57;;;15.40;96.80;;;;;;5094547;28;20451;-65
2021/07/01 02:55:41;;;;;;;16.47;14.07;;;15.40;96.40;;;;;;5094292;28;20446;-65
2021/07/01 02:58:08;;;;;;;15.97;14.03;;;15.40;96.20;;;;;;5094455;28;20460;-65
2021/07/01 03:00:35;;;;;;;16.03;14.30;;;15.40;96.20;;;;;;5094444;28;20444;-65
2021/07/01 03:03:02;;;;;;;16.03;14.33;;;15.40;96.20;;;;;;5094668;28;20772;-65
2021/07/01 03:05:30;;;;;;;16.10;14.40;;;15.40;96.30;;;;;;5094348;28;20447;-65
2021/07/01 03:07:56;;;;;;;15.73;13.93;;;15.40;96.40;;;;;;5093794;28;21014;-65
2021/07/01 03:10:23;;;;;;;16.60;14.07;;;15.40;96.60;;;;;;5094291;28;20444;-65
2021/07/01 03:12:50;;;;;;;19.60;15.03;;;15.40;96.30;;;;;;5094216;28;20444;-65
2021/07/01 03:15:16;;;;;;;17.47;14.13;;;15.40;96.10;;;;;;5093906;28;20940;-65
2021/07/01 03:17:43;;;;;;;17.13;15.23;;;15.40;96.20;;;;;;5094171;28;20464;-65
2021/07/01 03:20:10;;;;;;;19.77;15.57;;;15.50;96.10;;;;;;5094219;28;20448;-65
2021/07/01 03:22:38;;;;;;;20.17;18.07;;;15.40;95.90;;;;;;5094016;28;20451;-66
2021/07/01 03:25:06;;;;;;;20.23;15.30;;;15.40;96.30;;;;;;5093964;28;20432;-65
2021/07/01 03:27:33;;;;;;;21.93;17.20;;;15.40;95.90;;;;;;5094191;28;20965;-66
2021/07/01 03:30:00;;;;;;;23.77;17.70;;;15.40;95.80;;;;;;5093352;28;20480;-65
2021/07/01 03:32:27;;;;;;;19.93;16.57;;;15.40;95.90;;;;;;5093886;28;20452;-65
2021/07/01 03:34:53;;;;;;;22.07;17.27;;;15.40;96.00;;;;;;5093833;28;20493;-65
2021/07/01 03:37:20;;;;;;;18.63;16.63;;;15.40;95.90;;;;;;5093711;28;20820;-66
2021/07/01 03:39:48;;;;;;;23.50;17.70;;;15.50;95.90;;;;;;5093788;28;20430;-65
2021/07/01 03:42:19;;;;;;;21.40;17.20;;;15.40;95.50;;;;;;5093367;28;20972;-65
2021/07/01 03:44:45;;;;;;;21.63;18.33;;;15.30;95.60;;;;;;5093780;28;20432;-65
2021/07/01 03:47:12;;;;;;;25.87;19.10;;;15.30;95.90;;;;;;5093620;28;20463;-65
2021/07/01 03:49:39;;;;;;;20.00;17.53;;;15.30;95.90;;;;;;5093592;28;20475;-65
2021/07/01 03:52:07;;;;;;;20.67;18.27;;;15.30;95.90;;;;;;5093594;28;20440;-65
2021/07/01 03:54:34;;;;;;;25.83;19.47;;;15.30;96.00;;;;;;5093558;28;20454;-65
2021/07/01 03:57:02;;;;;;;24.07;17.93;;;15.30;96.20;;;;;;5093536;28;20468;-65
2021/07/01 03:59:29;;;;;;;18.40;16.60;;;15.30;95.80;;;;;;5093534;28;20606;-65
2021/07/01 04:01:55;;;;;;;20.83;18.50;;;15.30;96.00;;;;;;5093489;28;20455;-65
2021/07/01 04:04:22;;;;;;;18.40;16.23;;;15.30;95.90;;;;;;5093653;28;20455;-65
2021/07/01 04:06:49;;;;;;;23.90;17.17;;;15.30;96.10;;;;;;5093126;28;20981;-66
2021/07/01 04:09:15;;;;;;;17.73;15.83;;;15.40;95.90;;;;;;5093378;28;20483;-65
2021/07/01 04:11:42;;;;;;;20.43;16.90;;;15.40;95.90;;;;;;5093406;28;20443;-65
2021/07/01 04:14:12;;;;;;;20.97;17.47;;;15.40;95.70;;;;;;5093391;28;20471;-65
2021/07/01 04:16:39;;;;;;;23.30;19.50;;;15.50;95.70;;;;;;5093335;28;20467;-65
2021/07/01 04:19:06;;;;;;;20.67;17.60;;;15.50;95.70;;;;;;5093329;28;20447;-65
2021/07/01 04:21:32;;;;;;;22.20;18.03;;;15.50;95.70;;;;;;5093025;28;20963;-65
2021/07/01 04:24:00;;;;;;;27.00;18.50;;;15.50;95.90;;;;;;5093321;28;20444;-65
2021/07/01 04:26:27;;;;;;;22.13;17.30;;;15.50;96.00;;;;;;5093207;28;20475;-65
2021/07/01 04:28:54;;;;;;;25.80;17.70;;;15.40;95.50;;;;;;5093107;28;20475;-65
2021/07/01 04:31:23;;;;;;;18.37;16.03;;;15.50;95.70;;;;;;5093164;28;20427;-65
2021/07/01 04:33:49;;;;;;;30.77;18.57;;;15.50;95.40;;;;;;5093244;28;20462;-65
2021/07/01 04:36:16;;;;;;;22.13;15.47;;;15.50;95.30;;;;;;5092784;28;20932;-66
2021/07/01 04:38:43;;;;;;;18.70;13.50;;;15.40;95.10;;;;;;5093214;28;20451;-65
2021/07/01 04:41:10;;;;;;;21.93;14.30;;;15.30;95.00;;;;;;5096598;28;20451;-66
2021/07/01 04:43:37;;;;;;;17.07;14.13;;;15.30;95.30;;;;;;5096997;28;20443;-66
2021/07/01 04:46:04;;;;;;;16.43;11.60;;;15.30;95.60;;;;;;5096847;28;20439;-66
2021/07/01 04:48:32;;;;;;;20.30;11.30;;;15.20;95.50;;;;;;5096849;28;20468;-66
2021/07/01 04:50:58;;;;;;;18.47;11.60;;;15.20;95.60;;;;;;5096485;28;20813;-66
2021/07/01 04:53:25;;;;;;;13.90;10.37;;;15.10;95.80;;;;;;5096843;28;20446;-65
2021/07/01 04:55:52;;;;;;;16.87;11.57;;;15.10;95.90;;;;;;5096725;28;20435;-70
2021/07/01 04:58:18;;;;;;;18.83;10.80;;;15.10;96.00;;;;;;5096723;28;20445;-65
2021/07/01 05:00:47;;;;;;;19.40;12.07;;;15.10;96.00;;;;;;5096374;28;20929;-65
2021/07/01 05:03:14;;;;;;;14.13;10.20;;;15.20;95.80;;;;;;5096691;28;20806;-65
2021/07/01 05:05:42;;;;;;;15.70;10.50;;;15.20;95.50;;;;;;5096281;28;20450;-65
2021/07/01 05:08:09;;;;;;;20.17;12.47;;;15.10;95.30;;;;;;5096177;28;20995;-66
2021/07/01 05:10:36;;;;;;;18.23;11.30;;;15.20;95.40;;;;;;5096511;28;20440;-68
2021/07/01 05:13:03;;;;;;;19.17;10.30;;;15.20;95.50;;;;;;5096436;28;20451;-68
2021/07/01 05:15:30;;;;;;;19.93;10.60;;;15.30;95.20;;;;;;5096088;28;20818;-66
2021/07/01 05:17:56;;;;;;;16.83;9.50;;;15.30;95.00;;;;;;5096236;28;20479;-66
2021/07/01 05:20:23;;;;;;;15.90;10.60;;;15.30;95.10;;;;;;5097555;28;20443;-66
2021/07/01 05:22:51;;;;;;;19.50;11.13;;;15.30;95.10;;;;;;5097340;28;20522;-66
2021/07/01 05:25:18;;;;;;;26.03;11.50;;;15.30;94.90;;;;;;5095886;28;20825;-66
2021/07/01 05:27:44;;;;;;;17.90;11.23;;;15.30;95.20;;;;;;5096060;28;20464;-66
2021/07/01 05:30:13;;;;;;;18.37;11.93;;;15.40;94.80;;;;;;5096010;28;20483;-66
2021/07/01 05:32:39;;;;;;;18.70;11.40;;;15.40;94.90;;;;;;5095796;28;20443;-66
2021/07/01 05:35:08;;;;;;;16.70;12.37;;;15.40;94.80;;;;;;5096116;28;20451;-66
2021/07/01 05:37:35;;;;;;;14.37;10.33;;;15.40;94.80;;;;;;5095607;28;20475;-66
2021/07/01 05:40:03;;;;;;;15.73;9.90;;;15.40;94.60;;;;;;5095924;28;20439;-66
2021/07/01 05:42:30;;;;;;;14.47;10.40;;;15.30;94.50;;;;;;5095894;28;20447;-66
2021/07/01 05:44:57;;;;;;;17.97;9.77;;;15.30;94.60;;;;;;5095842;28;20440;-66
2021/07/01 05:47:23;;;;;;;16.37;11.43;;;15.30;94.60;;;;;;5095405;28;20968;-66
2021/07/01 05:49:50;;;;;;;14.30;10.00;;;15.30;94.70;;;;;;5095653;28;20499;-66
2021/07/01 05:52:22;;;;;;;16.00;10.53;;;15.20;94.60;;;;;;5094633;28;20444;-66
2021/07/01 05:54:55;;;;;;;16.67;10.40;;;15.30;95.00;;;;;;5095713;28;20432;-66
2021/07/01 05:57:23;;;;;;;18.20;11.17;;;15.20;95.10;;;;;;5095717;28;20830;-66
2021/07/01 05:59:50;;;;;;;15.77;11.20;;;15.20;95.20;;;;;;5096334;28;20448;-66
2021/07/01 06:02:16;;;;;;;16.77;11.80;;;15.20;95.40;;;;;;5095496;28;20443;-66
2021/07/01 06:04:43;;;;;;;14.73;12.60;;;15.20;94.80;;;;;;5095206;28;20452;-66
2021/07/01 06:07:14;;;;;;;21.17;12.10;;;15.20;95.00;;;;;;5095040;28;20993;-66
2021/07/01 06:09:43;;;;;;;19.53;12.63;;;15.20;95.20;;;;;;5095271;28;20474;-66
2021/07/01 06:12:10;;;;;;;23.70;13.57;;;15.20;95.10;;;;;;5095355;28;20527;-66
2021/07/01 06:14:38;;;;;;;16.17;13.23;;;15.30;95.00;;;;;;5095239;28;20439;-66
2021/07/01 06:17:05;;;;;;;16.13;14.17;;;15.30;95.20;;;;;;5094871;28;20823;-66
2021/07/01 06:19:33;;;;;;;20.30;14.50;;;15.30;95.00;;;;;;5095175;28;20447;-66
2021/07/01 06:22:00;;;;;;;21.50;15.97;;;15.30;94.90;;;;;;5094806;28;20826;-66
2021/07/01 06:24:26;;;;;;;19.93;14.33;;;15.30;95.30;;;;;;5094783;28;20451;-66
2021/07/01 06:26:53;;;;;;;17.13;14.23;;;15.40;94.70;;;;;;5094889;28;20460;-66
2021/07/01 06:29:20;;;;;;;17.47;11.60;;;15.40;94.60;;;;;;5094515;28;20818;-66
2021/07/01 06:31:48;;;;;;;18.83;13.33;;;15.50;94.90;;;;;;5094646;28;20794;-66
2021/07/01 06:34:17;;;;;;;18.73;12.40;;;15.60;94.40;;;;;;5094919;28;20451;-65
2021/07/01 06:36:46;;;;;;;20.87;11.20;;;15.60;93.80;;;;;;5094773;28;20536;-66
2021/07/01 06:39:14;;;;;;;18.33;11.00;;;15.50;94.00;;;;;;5095015;28;20435;-66
2021/07/01 06:41:45;;;;;;;21.83;12.20;;;15.50;93.90;;;;;;5094829;28;20458;-66
2021/07/01 06:44:13;;;;;;;16.03;10.83;;;15.60;93.80;;;;;;5094831;28;20509;-66
2021/07/01 06:46:41;;;;;;;17.03;10.70;;;15.60;93.50;;;;;;5094619;28;20468;-66
2021/07/01 06:49:10;;;;;;;15.57;10.87;;;15.60;93.40;;;;;;5094516;28;20482;-66
2021/07/01 06:51:40;;;;;;;15.73;10.17;;;15.60;93.40;;;;;;5094564;28;20463;-66
2021/07/01 06:54:12;;;;;;;17.50;10.73;;;15.60;93.50;;;;;;5094578;28;20428;-66
2021/07/01 06:56:40;;;;;;;19.77;10.03;;;15.60;93.20;;;;;;5094461;28;20898;-66
2021/07/01 06:59:08;;;;;;;15.53;9.97;;;15.60;93.20;;;;;;5094162;28;20943;-66
2021/07/01 07:01:35;;;;;;;17.20;9.10;;;15.70;92.80;;;;;;5094440;28;20859;-66
2021/07/01 07:04:02;;;;;;;11.93;8.40;;;15.70;92.80;;;;;;5094117;28;20440;-66
2021/07/01 07:06:30;;;;;;;12.27;8.03;;;15.70;93.10;;;;;;5094069;28;20480;-66
2021/07/01 07:08:57;;;;;;;14.73;8.67;;;15.80;92.50;;;;;;5094271;28;20459;-66
2021/07/01 07:11:24;;;;;;;16.60;8.00;;;15.80;92.50;;;;;;5093960;28;20895;-66
2021/07/01 07:13:51;;;;;;;13.20;7.77;;;15.80;92.30;;;;;;5093795;28;20452;-66
2021/07/01 07:16:19;;;;;;;17.30;8.80;;;15.80;92.00;;;;;;5094022;28;21035;-66
2021/07/01 07:18:50;;;;;;;14.10;8.57;;;15.70;91.90;;;;;;5094097;28;20459;-66
2021/07/01 07:21:18;;;;;;;12.30;8.80;;;15.70;92.60;;;;;;5094064;28;20448;-66
2021/07/01 07:23:51;;;;;;;14.97;10.20;;;15.70;92.70;;;;;;5094014;28;20448;-66
2021/07/01 07:26:20;;;;;;;12.67;8.67;;;15.80;92.40;;;;;;5093928;28;20468;-66
2021/07/01 07:28:51;;;;;;;13.33;8.87;;;15.90;92.40;;;;;;5093616;28;20444;-66
2021/07/01 07:31:24;;;;;;;14.63;8.43;;;16.00;92.50;;;;;;5094155;28;20443;-66
2021/07/01 07:33:54;;;;;;;16.20;9.00;;;16.00;92.10;;;;;;5093908;28;20432;-66
2021/07/01 07:36:21;;;;;;;16.93;9.37;;;16.20;92.30;;;;;;5093682;28;21003;-66
2021/07/01 07:38:50;;;;;;;14.90;8.93;;;16.40;91.60;;;;;;5093777;28;20435;-66
2021/07/01 07:41:17;;;;;;;17.77;8.13;;;16.50;91.30;;;;;;5093791;28;20424;-66
2021/07/01 07:43:45;;;;;;;14.67;8.03;;;16.50;91.00;;;;;;5093650;28;20932;-66
2021/07/01 07:46:12;;;;;;;11.00;7.60;;;16.50;91.10;;;;;;5093658;28;20447;-66
2021/07/01 07:48:40;;;;;;;17.83;10.53;;;16.50;91.10;;;;;;5093906;28;20435;-66
2021/07/01 07:51:09;;;;;;;16.27;9.63;;;16.50;91.70;;;;;;5093625;28;20482;-66
2021/07/01 07:53:39;;;;;;;12.90;8.67;;;16.60;90.90;;;;;;5093905;28;20439;-66
2021/07/01 07:56:09;;;;;;;14.10;9.07;;;16.70;90.70;;;;;;5093185;28;20446;-66
2021/07/01 07:58:40;;;;;;;16.53;8.17;;;16.70;89.60;;;;;;5093621;28;20447;-66
2021/07/01 08:01:09;;;;;;;16.47;9.53;;;16.70;89.70;;;;;;5093617;28;20511;-66
2021/07/01 08:03:38;;;;;;;12.97;8.83;;;16.60;89.10;;;;;;5093579;28;20447;-66
2021/07/01 08:06:06;;;;;;;14.40;9.23;;;16.60;90.50;;;;;;5093404;28;20451;-66
2021/07/01 08:08:36;;;;;;;12.20;10.27;;;16.80;89.10;;;;;;5093534;28;20436;-66
2021/07/01 08:11:05;;;;;;;15.33;9.27;;;17.00;89.70;;;;;;5093068;28;21035;-66
2021/07/01 08:13:34;;;;;;;16.50;10.87;;;17.20;89.40;;;;;;5093729;28;20440;-67
2021/07/01 08:16:03;;;;;;;13.60;9.83;;;17.30;89.40;;;;;;5096521;28;20427;-67
2021/07/01 08:18:37;;;;;;;22.33;11.83;;;17.40;87.90;;;;;;5097591;28;20436;-67
2021/07/01 08:21:04;;;;;;;15.13;9.70;;;17.50;86.10;;;;;;5097730;28;20432;-67
2021/07/01 08:23:31;;;;;;;13.10;9.40;;;17.40;85.80;;;;;;5097578;28;20799;-67
2021/07/01 08:25:59;;;;;;;11.53;8.60;;;17.50;86.80;;;;;;5097426;28;20463;-67
2021/07/01 08:28:26;;;;;;;13.83;8.67;;;17.50;88.40;;;;;;5097337;28;20444;-67
2021/07/01 08:30:55;;;;;;;16.00;8.20;;;17.60;85.00;;;;;;5097273;28;20550;-70
2021/07/01 08:33:23;;;;;;;14.83;8.33;;;17.60;84.20;;;;;;5097313;28;20443;-67
2021/07/01 08:35:54;;;;;;;12.20;8.30;;;17.50;84.60;;;;;;5097163;28;20451;-67
2021/07/01 08:38:21;;;;;;;10.23;7.50;;;17.40;85.30;;;;;;5097196;28;20799;-67
2021/07/01 08:40:49;;;;;;;13.53;8.80;;;17.40;85.20;;;;;;5096803;28;20945;-67
2021/07/01 08:43:19;;;;;;;15.37;7.83;;;17.30;86.10;;;;;;5097077;28;20450;-67
2021/07/01 08:46:11;;;;;;;10.33;8.00;;;17.30;87.20;;;;;;5096822;28;21008;-67
2021/07/01 08:48:49;;;;;;;11.77;7.30;;;17.30;85.90;;;;;;5097100;28;20621;-67
2021/07/01 08:51:20;;;;;;;8.37;7.23;;;17.30;86.80;;;;;;5096830;28;20459;-67
2021/07/01 08:54:33;;;;;;;12.00;7.10;;;17.40;85.70;;;;;;5097807;28;20423;-67
2021/07/01 08:57:02;;;;;;;12.63;7.10;;;17.70;85.90;;;;;;5050232;28;20506;-67
2021/07/01 08:59:43;;;;;;;11.43;7.23;;;17.70;84.70;;;;;;5097231;28;20446;-67
2021/07/01 09:02:13;;;;;;;12.23;6.87;;;17.80;84.00;;;;;;5097026;28;20854;-67
2021/07/01 09:04:49;;;;;;;11.93;6.57;;;18.00;84.10;;;;;;5097316;28;20440;-67
2021/07/01 09:07:21;;;;;;;13.80;7.17;;;17.80;82.70;;;;;;5096797;28;21059;-67
2021/07/01 09:09:54;;;;;;;10.40;7.37;;;17.80;82.50;;;;;;5096624;28;20491;-68
2021/07/01 09:12:24;;;;;;;14.77;7.50;;;17.70;83.60;;;;;;5096398;28;20428;-67
2021/07/01 09:14:55;;;;;;;9.10;7.00;;;17.60;83.70;;;;;;5096465;28;20451;-67
2021/07/01 09:17:26;;;;;;;11.53;6.53;;;17.50;85.10;;;;;;5096169;28;20992;-67
2021/07/01 09:19:55;;;;;;;10.43;5.80;;;17.70;85.30;;;;;;5096437;28;20431;-67
2021/07/01 09:22:23;;;;;;;11.60;6.93;;;17.60;84.00;;;;;;5096328;28;20468;-67
2021/07/01 09:24:51;;;;;;;9.60;7.23;;;17.70;84.60;;;;;;5096299;28;20455;-67
2021/07/01 09:27:19;;;;;;;10.27;7.10;;;17.50;84.50;;;;;;5096129;28;20464;-67
2021/07/01 09:29:47;;;;;;;8.07;6.97;;;17.60;85.00;;;;;;5096183;28;20424;-67
2021/07/01 09:32:15;;;;;;;12.33;8.90;;;17.60;84.30;;;;;;5095903;28;20913;-67
2021/07/01 09:34:45;;;;;;;15.33;7.60;;;17.50;84.40;;;;;;5096155;28;20446;-68
2021/07/01 09:37:12;;;;;;;12.03;8.13;;;17.40;83.80;;;;;;5095621;28;20988;-68
2021/07/01 09:39:40;;;;;;;11.47;8.17;;;17.30;85.60;;;;;;5096024;28;20435;-68
2021/07/01 09:42:08;;;;;;;7.80;6.60;;;17.10;85.50;;;;;;5095699;28;20898;-68
2021/07/01 09:44:37;;;;;;;10.23;7.47;;;16.90;87.60;;;;;;5096020;28;20420;-67
2021/07/01 09:47:07;;;;;;;9.23;7.43;;;16.90;87.30;;;;;;5095829;28;20472;-67
2021/07/01 09:49:36;;;;;;;11.43;7.43;;;16.90;88.30;;;;;;5095862;28;20424;-67
2021/07/01 09:52:07;;;;;;;10.97;7.10;;;17.00;87.10;;;;;;5095544;28;20934;-67
2021/07/01 09:54:36;;;;;;;11.73;8.23;;;17.10;87.50;;;;;;5095408;28;20424;-67
2021/07/01 09:57:08;;;;;;;10.70;6.97;;;17.20;86.90;;;;;;5095314;28;20470;-67
2021/07/01 09:59:43;;;;;;;9.27;6.80;;;17.20;86.80;;;;;;5095943;28;20416;-67
2021/07/01 10:02:16;;;;;;;10.60;7.27;;;17.30;86.10;;;;;;5095828;28;20609;-67
2021/07/01 10:04:45;;;;;;;12.10;6.50;;;17.40;86.40;;;;;;5095272;28;20930;-67
2021/07/01 10:07:15;;;;;;;10.17;7.07;;;17.60;86.10;;;;;;5095296;28;20546;-67
2021/07/01 10:09:42;;;;;;;10.07;7.70;;;17.60;84.90;;;;;;5095653;28;20440;-67
2021/07/01 10:12:20;;;;;;;12.83;7.87;;;17.60;84.50;;;;;;5095012;28;20806;-67
2021/07/01 10:14:48;;;;;;;11.80;7.50;;;17.50;84.80;;;;;;5095383;28;20431;-67
2021/07/01 10:17:18;;;;;;;9.60;7.87;;;17.40;84.80;;;;;;5095228;28;20463;-67
2021/07/01 10:19:45;;;;;;;10.70;7.83;;;17.20;85.50;;;;;;5095197;28;20454;-67
2021/07/01 10:22:18;;;;;;;14.90;9.20;;;17.00;86.00;;;;;;5095136;28;20447;-67
2021/07/01 10:24:58;;;;;;;16.30;8.47;;;16.90;86.70;;;;;;5095181;28;20481;-67
2021/07/01 10:27:34;;;;;;;17.37;7.97;;;16.90;87.30;;;;;;5094995;28;20525;-67
2021/07/01 10:30:12;;;;;;;11.40;7.90;;;17.00;87.10;;;;;;5094638;28;20430;-67
2021/07/01 10:32:41;;;;;;;11.90;9.53;;;17.10;87.20;;;;;;5095587;28;20485;-67
2021/07/01 10:35:26;;;;;;;14.37;8.40;;;17.20;87.00;;;;;;5094919;28;20439;-67
2021/07/01 10:38:13;;;;;;;13.30;8.67;;;17.30;88.30;;;;;;5094121;28;20482;-67
2021/07/01 10:40:44;;;;;;;18.13;8.97;;;17.30;87.40;;;;;;5094839;28;20424;-67
2021/07/01 10:43:11;;;;;;;12.30;7.77;;;17.30;85.30;;;;;;5095336;28;20428;-67
2021/07/01 10:45:52;;;;;;;10.50;7.60;;;17.30;85.80;;;;;;5094382;28;20442;-67
2021/07/01 10:48:20;;;;;;;14.67;7.90;;;17.40;87.40;;;;;;5094581;28;20481;-67
2021/07/01 10:50:48;;;;;;;12.00;8.13;;;17.50;85.60;;;;;;5094608;28;20829;-67
2021/07/01 10:53:31;;;;;;;10.77;7.70;;;17.40;84.80;;;;;;5094644;28;20800;-67
2021/07/01 10:56:01;;;;;;;9.60;7.20;;;17.60;86.20;;;;;;5094505;28;20439;-67
2021/07/01 10:58:29;;;;;;;14.07;8.47;;;17.60;85.20;;;;;;5094167;28;20964;-67
2021/07/01 11:00:57;;;;;;;11.63;7.33;;;17.50;85.60;;;;;;5094122;28;20949;-67
2021/07/01 11:03:26;;;;;;;11.13;8.10;;;17.40;84.70;;;;;;5094312;28;20444;-67
2021/07/01 11:05:54;;;;;;;13.50;8.80;;;17.50;85.20;;;;;;5094318;28;20453;-68
2021/07/01 11:08:30;;;;;;;12.10;7.80;;;17.50;85.20;;;;;;5093962;28;20460;-67
2021/07/01 11:10:59;;;;;;;15.47;7.73;;;17.60;84.60;;;;;;5094173;28;20467;-67
2021/07/01 11:13:27;;;;;;;9.67;7.20;;;17.70;85.00;;;;;;5094177;28;20451;-67
2021/07/01 11:16:05;;;;;;;10.73;6.70;;;17.60;84.40;;;;;;5093813;28;20432;-67
2021/07/01 11:18:37;;;;;;;10.00;7.13;;;17.60;84.70;;;;;;5093889;28;20469;-67
2021/07/01 11:21:08;;;;;;;11.40;7.33;;;17.50;84.70;;;;;;5094020;28;20451;-67
2021/07/01 11:23:36;;;;;;;10.57;7.83;;;17.40;84.90;;;;;;5093786;28;20435;-67
2021/07/01 11:26:03;;;;;;;10.27;6.80;;;17.30;84.90;;;;;;5093925;28;20890;-67
2021/07/01 11:28:30;;;;;;;9.80;7.43;;;17.20;86.30;;;;;;5094151;28;20474;-67
2021/07/01 11:31:00;;;;;;;11.83;6.33;;;17.20;86.60;;;;;;5093840;28;20566;-67
2021/07/01 11:33:28;;;;;;;10.53;6.47;;;17.20;85.90;;;;;;5093872;28;20535;-67
2021/07/01 11:36:09;;;;;;;10.20;7.67;;;17.20;86.40;;;;;;5093773;28;20439;-68
2021/07/01 11:38:38;;;;;;;11.70;7.73;;;17.20;86.10;;;;;;5093666;28;20924;-67
2021/07/01 11:41:05;;;;;;;11.20;7.10;;;17.20;85.30;;;;;;5093784;28;20486;-67
2021/07/01 11:43:33;;;;;;;17.47;8.30;;;17.10;86.10;;;;;;5093898;28;20432;-67
2021/07/01 11:46:01;;;;;;;13.87;8.30;;;17.00;86.80;;;;;;5093942;28;20475;-67
2021/07/01 11:48:30;;;;;;;11.50;7.90;;;16.90;87.10;;;;;;5093802;28;20444;-67
2021/07/01 11:50:58;;;;;;;12.73;7.60;;;16.80;87.00;;;;;;5093308;28;20545;-67
2021/07/01 11:53:26;;;;;;;12.90;8.07;;;16.70;88.80;;;;;;5093683;28;20440;-67
2021/07/01 11:55:57;;;;;;;8.90;7.83;;;16.70;89.10;;;;;;5093633;28;20455;-67
2021/07/01 11:58:24;;;;;;;15.27;8.73;;;16.80;89.10;;;;;;5093290;28;20443;-67
2021/07/01 12:00:52;;;;;;;11.03;9.20;;;16.70;88.20;;;;;;5093575;28;20423;-67
2021/07/01 12:03:20;;;;;;;13.10;10.43;;;16.80;88.90;;;;;;5093578;28;20428;-68
2021/07/01 12:05:48;;;;;;;10.00;8.83;;;16.80;88.20;;;;;;5093456;28;20460;-68
2021/07/01 12:08:15;;;;;;;12.33;10.10;;;16.80;89.00;;;;;;5093418;28;20483;-68
2021/07/01 12:10:44;;;;;;;18.30;10.03;;;16.80;88.40;;;;;;5093380;28;20475;-68
2021/07/01 12:13:42;;;;;;;13.30;11.07;;;16.80;88.10;;;;;;5093131;28;20788;-68
2021/07/01 12:16:11;;;;;;;15.80;10.90;;;16.80;89.20;;;;;;5011149;28;20455;-68
2021/07/01 12:18:57;;;;;;;13.73;10.83;;;16.80;88.30;;;;;;5075478;28;20460;-68
2021/07/01 12:21:26;;;;;;;13.73;10.63;;;16.80;88.30;;;;;;5093404;28;20456;-68
2021/07/01 12:23:55;;;;;;;12.47;10.00;;;16.80;88.50;;;;;;5093092;28;20436;-68
2021/07/01 12:26:33;;;;;;;15.50;11.00;;;16.80;88.80;;;;;;5093272;28;20490;-68
2021/07/01 12:29:01;;;;;;;11.00;9.87;;;16.90;89.00;;;;;;5093358;28;20806;-68
2021/07/01 12:31:28;;;;;;;12.37;10.40;;;16.90;89.40;;;;;;5093222;28;20490;-68
2021/07/01 12:33:56;;;;;;;12.53;9.50;;;16.90;88.80;;;;;;5093194;28;20455;-68
2021/07/01 12:36:26;;;;;;;11.83;10.50;;;16.90;88.80;;;;;;5092836;28;20999;-68
2021/07/01 12:39:25;;;;;;;13.20;11.47;;;16.90;89.20;;;;;;5093441;28;20424;-67
2021/07/01 12:41:58;;;;;;;11.17;10.00;;;16.80;90.20;;;;;;5093198;28;20463;-67